sensor_id;sensor_type;location;lat;lon;timestamp;temperature;humidity
44069;DHT22;29738;51.234;5.484;2024-03-17T00:01:38;7.40;99.90
44069;DHT22;29738;51.234;5.484;2024-03-17T00:04:04;7.30;99.90
44069;DHT22;29738;51.234;5.484;2024-03-17T00:06:30;7.30;99.90
44069;DHT22;29738;51.234;5.484;2024-03-17T00:08:55;7.30;99.90
44069;DHT22;29738;51.234;5.484;2024-03-17T00:11:21;7.20;99.90
44069;DHT22;29738;51.234;5.484;2024-03-17T00:13:47;7.40;99.90
44069;DHT22;29738;51.234;5.484;2024-03-17T00:16:13;7.30;99.90
44069;DHT22;29738;51.234;5.484;2024-03-17T00:18:39;7.50;99.90
44069;DHT22;29738;51.234;5.484;2024-03-17T00:21:06;7.40;99.90
44069;DHT22;29738;51.234;5.484;2024-03-17T00:23:32;7.30;99.90
44069;DHT22;29738;51.234;5.484;2024-03-17T00:25:57;7.10;99.90
44069;DHT22;29738;51.234;5.484;2024-03-17T00:28:23;7.30;99.90
44069;DHT22;29738;51.234;5.484;2024-03-17T00:30:50;7.10;99.90
44069;DHT22;29738;51.234;5.484;2024-03-17T00:33:16;7.20;99.90
44069;DHT22;29738;51.234;5.484;2024-03-17T00:35:42;7.10;99.90
44069;DHT22;29738;51.234;5.484;2024-03-17T00:38:07;6.90;99.90
44069;DHT22;29738;51.234;5.484;2024-03-17T00:40:37;7.00;99.90
44069;DHT22;29738;51.234;5.484;2024-03-17T00:43:03;6.80;99.90
44069;DHT22;29738;51.234;5.484;2024-03-17T00:45:29;6.80;99.90
44069;DHT22;29738;51.234;5.484;2024-03-17T00:47:57;6.90;99.90
44069;DHT22;29738;51.234;5.484;2024-03-17T00:50:23;7.10;99.90
44069;DHT22;29738;51.234;5.484;2024-03-17T00:52:49;6.90;99.90
44069;DHT22;29738;51.234;5.484;2024-03-17T00:55:14;7.20;99.90
44069;DHT22;29738;51.234;5.484;2024-03-17T00:57:41;7.20;99.90
44069;DHT22;29738;51.234;5.484;2024-03-17T01:00:07;7.50;99.90
44069;DHT22;29738;51.234;5.484;2024-03-17T01:02:37;7.40;99.90
44069;DHT22;29738;51.234;5.484;2024-03-17T01:05:03;7.50;99.90
44069;DHT22;29738;51.234;5.484;2024-03-17T01:07:31;7.60;99.90
44069;DHT22;29738;51.234;5.484;2024-03-17T01:09:57;7.60;99.90
44069;DHT22;29738;51.234;5.484;2024-03-17T01:12:23;7.70;99.90
44069;DHT22;29738;51.234;5.484;2024-03-17T01:14:48;7.90;99.90
44069;DHT22;29738;51.234;5.484;2024-03-17T01:17:14;7.70;99.90
44069;DHT22;29738;51.234;5.484;2024-03-17T01:19:40;7.30;99.90
44069;DHT22;29738;51.234;5.484;2024-03-17T01:22:05;7.30;99.90
44069;DHT22;29738;51.234;5.484;2024-03-17T01:24:31;7.40;99.90
44069;DHT22;29738;51.234;5.484;2024-03-17T01:26:59;7.20;99.90
44069;DHT22;29738;51.234;5.484;2024-03-17T01:29:25;7.30;99.90
44069;DHT22;29738;51.234;5.484;2024-03-17T01:31:51;7.50;99.90
44069;DHT22;29738;51.234;5.484;2024-03-17T01:34:18;7.50;99.90
44069;DHT22;29738;51.234;5.484;2024-03-17T01:36:45;7.40;99.90
44069;DHT22;29738;51.234;5.484;2024-03-17T01:39:10;7.20;99.90
44069;DHT22;29738;51.234;5.484;2024-03-17T01:41:37;7.60;99.90
44069;DHT22;29738;51.234;5.484;2024-03-17T01:44:40;7.40;99.90
44069;DHT22;29738;51.234;5.484;2024-03-17T01:47:07;7.60;99.90
44069;DHT22;29738;51.234;5.484;2024-03-17T01:49:34;7.50;99.90
44069;DHT22;29738;51.234;5.484;2024-03-17T01:52:00;7.40;99.90
44069;DHT22;29738;51.234;5.484;2024-03-17T01:54:26;7.40;99.90
44069;DHT22;29738;51.234;5.484;2024-03-17T01:56:52;7.50;99.90
44069;DHT22;29738;51.234;5.484;2024-03-17T01:59:18;7.50;99.90
44069;DHT22;29738;51.234;5.484;2024-03-17T02:01:44;7.50;99.90
44069;DHT22;29738;51.234;5.484;2024-03-17T02:04:10;7.70;99.90
44069;DHT22;29738;51.234;5.484;2024-03-17T02:06:36;7.80;99.90
44069;DHT22;29738;51.234;5.484;2024-03-17T02:09:02;7.60;99.90
44069;DHT22;29738;51.234;5.484;2024-03-17T02:11:30;7.40;99.90
44069;DHT22;29738;51.234;5.484;2024-03-17T02:13:56;7.40;99.90
44069;DHT22;29738;51.234;5.484;2024-03-17T02:16:22;7.40;99.90
44069;DHT22;29738;51.234;5.484;2024-03-17T02:18:49;7.10;99.90
44069;DHT22;29738;51.234;5.484;2024-03-17T02:21:15;6.80;99.90
44069;DHT22;29738;51.234;5.484;2024-03-17T02:23:42;6.80;99.90
44069;DHT22;29738;51.234;5.484;2024-03-17T02:26:08;6.90;99.90
44069;DHT22;29738;51.234;5.484;2024-03-17T02:28:43;6.90;99.90
44069;DHT22;29738;51.234;5.484;2024-03-17T02:31:11;6.90;99.90
44069;DHT22;29738;51.234;5.484;2024-03-17T02:33:37;7.00;99.90
44069;DHT22;29738;51.234;5.484;2024-03-17T02:36:07;6.90;99.90
44069;DHT22;29738;51.234;5.484;2024-03-17T02:38:33;6.80;99.90
44069;DHT22;29738;51.234;5.484;2024-03-17T02:41:18;6.80;99.90
44069;DHT22;29738;51.234;5.484;2024-03-17T02:43:44;6.80;99.90
44069;DHT22;29738;51.234;5.484;2024-03-17T02:46:14;7.00;99.90
44069;DHT22;29738;51.234;5.484;2024-03-17T02:48:41;6.90;99.90
44069;DHT22;29738;51.234;5.484;2024-03-17T02:51:14;6.90;99.90
44069;DHT22;29738;51.234;5.484;2024-03-17T02:53:44;6.90;99.90
44069;DHT22;29738;51.234;5.484;2024-03-17T02:56:12;7.00;99.90
44069;DHT22;29738;51.234;5.484;2024-03-17T02:58:40;7.10;99.90
44069;DHT22;29738;51.234;5.484;2024-03-17T03:01:07;7.10;99.90
44069;DHT22;29738;51.234;5.484;2024-03-17T03:03:33;7.10;99.90
44069;DHT22;29738;51.234;5.484;2024-03-17T03:05:59;7.60;99.90
44069;DHT22;29738;51.234;5.484;2024-03-17T03:08:35;7.60;99.90
44069;DHT22;29738;51.234;5.484;2024-03-17T03:11:05;7.50;99.90
44069;DHT22;29738;51.234;5.484;2024-03-17T03:13:31;7.30;99.90
44069;DHT22;29738;51.234;5.484;2024-03-17T03:15:57;7.10;99.90
44069;DHT22;29738;51.234;5.484;2024-03-17T03:18:23;6.90;99.90
44069;DHT22;29738;51.234;5.484;2024-03-17T03:20:52;6.80;99.90
44069;DHT22;29738;51.234;5.484;2024-03-17T03:23:20;6.90;99.90
44069;DHT22;29738;51.234;5.484;2024-03-17T03:25:46;6.90;99.90
44069;DHT22;29738;51.234;5.484;2024-03-17T03:28:13;7.10;99.90
44069;DHT22;29738;51.234;5.484;2024-03-17T03:30:39;7.30;99.90
44069;DHT22;29738;51.234;5.484;2024-03-17T03:33:05;7.60;99.90
44069;DHT22;29738;51.234;5.484;2024-03-17T03:35:31;7.80;99.90
44069;DHT22;29738;51.234;5.484;2024-03-17T03:37:57;8.00;99.90
44069;DHT22;29738;51.234;5.484;2024-03-17T03:40:22;7.90;99.90
44069;DHT22;29738;51.234;5.484;2024-03-17T03:42:50;7.70;99.90
44069;DHT22;29738;51.234;5.484;2024-03-17T03:45:16;7.80;99.90
44069;DHT22;29738;51.234;5.484;2024-03-17T03:47:42;7.70;99.90
44069;DHT22;29738;51.234;5.484;2024-03-17T03:50:09;7.50;99.90
44069;DHT22;29738;51.234;5.484;2024-03-17T03:52:36;7.50;99.90
44069;DHT22;29738;51.234;5.484;2024-03-17T03:55:01;7.70;99.90
44069;DHT22;29738;51.234;5.484;2024-03-17T03:57:27;7.60;99.90
44069;DHT22;29738;51.234;5.484;2024-03-17T03:59:55;7.60;99.90
44069;DHT22;29738;51.234;5.484;2024-03-17T04:02:21;7.60;99.90
44069;DHT22;29738;51.234;5.484;2024-03-17T04:04:47;7.50;99.90
44069;DHT22;29738;51.234;5.484;2024-03-17T04:07:13;7.50;99.90
44069;DHT22;29738;51.234;5.484;2024-03-17T04:09:39;7.40;99.90
44069;DHT22;29738;51.234;5.484;2024-03-17T04:12:05;7.30;99.90
44069;DHT22;29738;51.234;5.484;2024-03-17T04:14:30;7.60;99.90
44069;DHT22;29738;51.234;5.484;2024-03-17T04:16:56;7.40;99.90
44069;DHT22;29738;51.234;5.484;2024-03-17T04:19:23;7.30;99.90
44069;DHT22;29738;51.234;5.484;2024-03-17T04:21:49;7.40;99.90
44069;DHT22;29738;51.234;5.484;2024-03-17T04:24:15;7.20;99.90
44069;DHT22;29738;51.234;5.484;2024-03-17T04:26:40;7.10;99.90
44069;DHT22;29738;51.234;5.484;2024-03-17T04:29:06;7.00;99.90
44069;DHT22;29738;51.234;5.484;2024-03-17T04:31:31;7.00;99.90
44069;DHT22;29738;51.234;5.484;2024-03-17T04:33:57;7.20;99.90
44069;DHT22;29738;51.234;5.484;2024-03-17T04:36:23;7.00;99.90
44069;DHT22;29738;51.234;5.484;2024-03-17T04:38:48;6.70;99.90
44069;DHT22;29738;51.234;5.484;2024-03-17T04:41:17;6.70;99.90
44069;DHT22;29738;51.234;5.484;2024-03-17T04:43:44;6.90;99.90
44069;DHT22;29738;51.234;5.484;2024-03-17T04:46:09;6.90;99.90
44069;DHT22;29738;51.234;5.484;2024-03-17T04:48:37;7.00;99.90
44069;DHT22;29738;51.234;5.484;2024-03-17T04:51:03;7.00;99.90
44069;DHT22;29738;51.234;5.484;2024-03-17T04:53:29;7.00;99.90
44069;DHT22;29738;51.234;5.484;2024-03-17T04:56:05;6.90;99.90
44069;DHT22;29738;51.234;5.484;2024-03-17T04:58:32;7.00;99.90
44069;DHT22;29738;51.234;5.484;2024-03-17T05:01:06;7.00;99.90
44069;DHT22;29738;51.234;5.484;2024-03-17T05:03:33;7.20;99.90
44069;DHT22;29738;51.234;5.484;2024-03-17T05:06:02;7.10;99.90
44069;DHT22;29738;51.234;5.484;2024-03-17T05:08:30;6.80;99.90
44069;DHT22;29738;51.234;5.484;2024-03-17T05:11:00;6.70;99.90
44069;DHT22;29738;51.234;5.484;2024-03-17T05:13:27;6.80;99.90
44069;DHT22;29738;51.234;5.484;2024-03-17T05:15:53;6.90;99.90
44069;DHT22;29738;51.234;5.484;2024-03-17T05:18:19;7.00;99.90
44069;DHT22;29738;51.234;5.484;2024-03-17T05:20:46;7.10;99.90
44069;DHT22;29738;51.234;5.484;2024-03-17T05:23:14;6.90;99.90
44069;DHT22;29738;51.234;5.484;2024-03-17T05:25:40;6.80;99.90
44069;DHT22;29738;51.234;5.484;2024-03-17T05:28:05;7.10;99.90
44069;DHT22;29738;51.234;5.484;2024-03-17T05:30:31;6.90;99.90
44069;DHT22;29738;51.234;5.484;2024-03-17T05:32:57;7.10;99.90
44069;DHT22;29738;51.234;5.484;2024-03-17T05:35:22;7.00;99.90
44069;DHT22;29738;51.234;5.484;2024-03-17T05:37:50;7.50;99.90
44069;DHT22;29738;51.234;5.484;2024-03-17T05:40:16;7.30;99.90
44069;DHT22;29738;51.234;5.484;2024-03-17T05:42:42;7.40;99.90
44069;DHT22;29738;51.234;5.484;2024-03-17T05:45:09;7.30;99.90
44069;DHT22;29738;51.234;5.484;2024-03-17T05:47:39;6.90;99.90
44069;DHT22;29738;51.234;5.484;2024-03-17T05:50:06;6.70;99.90
44069;DHT22;29738;51.234;5.484;2024-03-17T05:52:32;6.70;99.90
44069;DHT22;29738;51.234;5.484;2024-03-17T05:55:01;6.80;99.90
44069;DHT22;29738;51.234;5.484;2024-03-17T05:57:26;6.80;99.90
44069;DHT22;29738;51.234;5.484;2024-03-17T05:59:53;7.00;99.90
44069;DHT22;29738;51.234;5.484;2024-03-17T06:02:21;7.10;99.90
44069;DHT22;29738;51.234;5.484;2024-03-17T06:04:46;7.10;99.90
44069;DHT22;29738;51.234;5.484;2024-03-17T06:07:12;7.20;99.90
44069;DHT22;29738;51.234;5.484;2024-03-17T06:09:38;6.90;99.90
44069;DHT22;29738;51.234;5.484;2024-03-17T06:12:03;6.70;99.90
44069;DHT22;29738;51.234;5.484;2024-03-17T06:14:29;6.80;99.90
44069;DHT22;29738;51.234;5.484;2024-03-17T06:16:55;6.90;99.90
44069;DHT22;29738;51.234;5.484;2024-03-17T06:19:20;7.00;99.90
44069;DHT22;29738;51.234;5.484;2024-03-17T06:21:46;7.20;99.90
44069;DHT22;29738;51.234;5.484;2024-03-17T06:24:12;7.50;99.90
44069;DHT22;29738;51.234;5.484;2024-03-17T06:26:37;7.10;99.90
44069;DHT22;29738;51.234;5.484;2024-03-17T06:29:03;7.30;99.90
44069;DHT22;29738;51.234;5.484;2024-03-17T06:31:29;7.00;99.90
44069;DHT22;29738;51.234;5.484;2024-03-17T06:33:56;6.90;99.90
44069;DHT22;29738;51.234;5.484;2024-03-17T06:36:22;7.00;99.90
44069;DHT22;29738;51.234;5.484;2024-03-17T06:38:48;7.10;99.90
44069;DHT22;29738;51.234;5.484;2024-03-17T06:41:13;7.50;99.90
44069;DHT22;29738;51.234;5.484;2024-03-17T06:43:40;7.40;99.90
44069;DHT22;29738;51.234;5.484;2024-03-17T06:46:07;7.20;99.90
44069;DHT22;29738;51.234;5.484;2024-03-17T06:48:33;7.20;99.90
44069;DHT22;29738;51.234;5.484;2024-03-17T06:50:59;7.30;99.90
44069;DHT22;29738;51.234;5.484;2024-03-17T06:53:25;7.40;99.90
44069;DHT22;29738;51.234;5.484;2024-03-17T06:55:59;7.40;99.90
44069;DHT22;29738;51.234;5.484;2024-03-17T06:58:26;7.50;99.90
44069;DHT22;29738;51.234;5.484;2024-03-17T07:00:57;7.70;99.90
44069;DHT22;29738;51.234;5.484;2024-03-17T07:03:25;8.00;99.90
44069;DHT22;29738;51.234;5.484;2024-03-17T07:05:54;8.30;99.90
44069;DHT22;29738;51.234;5.484;2024-03-17T07:08:20;8.50;99.90
44069;DHT22;29738;51.234;5.484;2024-03-17T07:11:05;8.90;99.90
44069;DHT22;29738;51.234;5.484;2024-03-17T07:13:38;9.30;99.90
44069;DHT22;29738;51.234;5.484;2024-03-17T07:16:05;9.10;99.90
44069;DHT22;29738;51.234;5.484;2024-03-17T07:18:40;8.70;99.90
44069;DHT22;29738;51.234;5.484;2024-03-17T07:21:08;8.30;99.90
44069;DHT22;29738;51.234;5.484;2024-03-17T07:23:35;8.40;99.90
44069;DHT22;29738;51.234;5.484;2024-03-17T07:26:02;8.30;99.90
44069;DHT22;29738;51.234;5.484;2024-03-17T07:28:31;8.50;99.90
44069;DHT22;29738;51.234;5.484;2024-03-17T07:30:58;8.40;99.90
44069;DHT22;29738;51.234;5.484;2024-03-17T07:33:26;8.50;99.90
44069;DHT22;29738;51.234;5.484;2024-03-17T07:35:58;8.50;99.90
44069;DHT22;29738;51.234;5.484;2024-03-17T07:38:29;8.60;99.90
44069;DHT22;29738;51.234;5.484;2024-03-17T07:41:00;8.50;99.90
44069;DHT22;29738;51.234;5.484;2024-03-17T07:43:27;8.50;99.90
44069;DHT22;29738;51.234;5.484;2024-03-17T07:48:30;8.60;99.90
44069;DHT22;29738;51.234;5.484;2024-03-17T07:50:58;8.60;99.90
44069;DHT22;29738;51.234;5.484;2024-03-17T07:53:24;8.80;99.90
44069;DHT22;29738;51.234;5.484;2024-03-17T07:58:29;8.80;99.90
44069;DHT22;29738;51.234;5.484;2024-03-17T08:01:03;8.80;99.90
44069;DHT22;29738;51.234;5.484;2024-03-17T08:03:30;9.00;99.90
44069;DHT22;29738;51.234;5.484;2024-03-17T08:05:57;9.40;99.90
44069;DHT22;29738;51.234;5.484;2024-03-17T08:08:23;9.80;99.90
44069;DHT22;29738;51.234;5.484;2024-03-17T08:10:49;9.90;99.90
44069;DHT22;29738;51.234;5.484;2024-03-17T08:13:17;10.20;92.20
44069;DHT22;29738;51.234;5.484;2024-03-17T08:15:43;10.20;93.30
44069;DHT22;29738;51.234;5.484;2024-03-17T08:18:09;9.80;95.50
44069;DHT22;29738;51.234;5.484;2024-03-17T08:20:39;9.50;99.70
44069;DHT22;29738;51.234;5.484;2024-03-17T08:23:05;9.40;99.90
44069;DHT22;29738;51.234;5.484;2024-03-17T08:25:34;9.30;99.90
44069;DHT22;29738;51.234;5.484;2024-03-17T08:28:01;9.30;99.90
44069;DHT22;29738;51.234;5.484;2024-03-17T08:30:26;9.30;99.90
44069;DHT22;29738;51.234;5.484;2024-03-17T08:32:52;9.40;99.90
44069;DHT22;29738;51.234;5.484;2024-03-17T08:35:18;9.60;99.90
44069;DHT22;29738;51.234;5.484;2024-03-17T08:37:45;9.90;99.90
44069;DHT22;29738;51.234;5.484;2024-03-17T08:40:11;10.10;99.90
44069;DHT22;29738;51.234;5.484;2024-03-17T08:42:38;10.10;99.90
44069;DHT22;29738;51.234;5.484;2024-03-17T08:45:04;10.50;99.90
44069;DHT22;29738;51.234;5.484;2024-03-17T08:47:30;11.00;98.70
44069;DHT22;29738;51.234;5.484;2024-03-17T08:49:56;11.00;83.20
44069;DHT22;29738;51.234;5.484;2024-03-17T08:52:23;11.00;85.00
44069;DHT22;29738;51.234;5.484;2024-03-17T08:54:50;10.80;78.30
44069;DHT22;29738;51.234;5.484;2024-03-17T08:57:18;11.00;87.90
44069;DHT22;29738;51.234;5.484;2024-03-17T08:59:48;10.80;83.20
44069;DHT22;29738;51.234;5.484;2024-03-17T09:02:14;10.80;79.00
44069;DHT22;29738;51.234;5.484;2024-03-17T09:04:41;10.70;77.40
44069;DHT22;29738;51.234;5.484;2024-03-17T09:07:07;10.70;77.70
44069;DHT22;29738;51.234;5.484;2024-03-17T09:09:32;10.80;70.70
44069;DHT22;29738;51.234;5.484;2024-03-17T09:11:58;11.00;77.40
44069;DHT22;29738;51.234;5.484;2024-03-17T09:14:24;11.20;61.60
44069;DHT22;29738;51.234;5.484;2024-03-17T09:16:50;11.20;65.50
44069;DHT22;29738;51.234;5.484;2024-03-17T09:19:16;11.20;46.50
44069;DHT22;29738;51.234;5.484;2024-03-17T09:21:41;11.40;74.00
44069;DHT22;29738;51.234;5.484;2024-03-17T09:24:08;11.30;38.80
44069;DHT22;29738;51.234;5.484;2024-03-17T09:26:34;11.40;41.30
44069;DHT22;29738;51.234;5.484;2024-03-17T09:29:01;11.30;41.30
44069;DHT22;29738;51.234;5.484;2024-03-17T09:31:26;11.40;53.30
44069;DHT22;29738;51.234;5.484;2024-03-17T09:33:52;11.50;42.30
44069;DHT22;29738;51.234;5.484;2024-03-17T09:36:18;11.60;41.00
44069;DHT22;29738;51.234;5.484;2024-03-17T09:38:44;11.60;37.10
44069;DHT22;29738;51.234;5.484;2024-03-17T09:41:22;11.70;35.10
44069;DHT22;29738;51.234;5.484;2024-03-17T09:43:52;11.90;45.30
44069;DHT22;29738;51.234;5.484;2024-03-17T09:46:19;12.10;32.60
44069;DHT22;29738;51.234;5.484;2024-03-17T09:48:46;12.20;23.40
44069;DHT22;29738;51.234;5.484;2024-03-17T09:51:22;12.40;28.70
44069;DHT22;29738;51.234;5.484;2024-03-17T09:53:49;12.60;21.70
44069;DHT22;29738;51.234;5.484;2024-03-17T09:56:17;12.60;7.90
44069;DHT22;29738;51.234;5.484;2024-03-17T09:58:53;12.90;10.50
44069;DHT22;29738;51.234;5.484;2024-03-17T10:01:19;13.10;3.70
44069;DHT22;29738;51.234;5.484;2024-03-17T10:03:46;13.10;3.20
44069;DHT22;29738;51.234;5.484;2024-03-17T10:06:15;12.60;1.00
44069;DHT22;29738;51.234;5.484;2024-03-17T10:08:42;12.50;13.80
44069;DHT22;29738;51.234;5.484;2024-03-17T10:11:08;12.80;5.30
44069;DHT22;29738;51.234;5.484;2024-03-17T10:13:34;12.90;8.00
44069;DHT22;29738;51.234;5.484;2024-03-17T10:15:59;12.90;1.00
44069;DHT22;29738;51.234;5.484;2024-03-17T10:18:25;12.80;1.80
44069;DHT22;29738;51.234;5.484;2024-03-17T10:20:51;13.10;1.00
44069;DHT22;29738;51.234;5.484;2024-03-17T10:23:22;13.10;1.00
44069;DHT22;29738;51.234;5.484;2024-03-17T10:25:48;13.60;1.00
44069;DHT22;29738;51.234;5.484;2024-03-17T10:28:16;13.90;1.00
44069;DHT22;29738;51.234;5.484;2024-03-17T10:30:42;14.00;1.00
44069;DHT22;29738;51.234;5.484;2024-03-17T10:33:26;13.60;1.00
44069;DHT22;29738;51.234;5.484;2024-03-17T10:35:58;13.60;1.00
44069;DHT22;29738;51.234;5.484;2024-03-17T10:38:26;13.80;1.00
44069;DHT22;29738;51.234;5.484;2024-03-17T10:40:52;13.60;1.00
44069;DHT22;29738;51.234;5.484;2024-03-17T10:43:18;13.70;1.00
44069;DHT22;29738;51.234;5.484;2024-03-17T10:45:51;13.60;1.00
44069;DHT22;29738;51.234;5.484;2024-03-17T10:48:20;13.80;1.00
44069;DHT22;29738;51.234;5.484;2024-03-17T10:50:49;14.00;1.00
44069;DHT22;29738;51.234;5.484;2024-03-17T10:53:20;13.90;1.00
44069;DHT22;29738;51.234;5.484;2024-03-17T10:56:04;13.90;1.00
44069;DHT22;29738;51.234;5.484;2024-03-17T10:58:35;14.10;1.00
44069;DHT22;29738;51.234;5.484;2024-03-17T11:01:22;14.30;1.00
44069;DHT22;29738;51.234;5.484;2024-03-17T11:03:49;14.20;1.00
44069;DHT22;29738;51.234;5.484;2024-03-17T11:06:17;14.70;1.00
44069;DHT22;29738;51.234;5.484;2024-03-17T11:08:43;14.50;1.00
44069;DHT22;29738;51.234;5.484;2024-03-17T11:11:11;14.20;1.00
44069;DHT22;29738;51.234;5.484;2024-03-17T11:13:36;14.30;1.00
44069;DHT22;29738;51.234;5.484;2024-03-17T11:16:05;14.20;1.00
44069;DHT22;29738;51.234;5.484;2024-03-17T11:18:50;14.10;1.00
44069;DHT22;29738;51.234;5.484;2024-03-17T11:21:24;13.90;1.00
44069;DHT22;29738;51.234;5.484;2024-03-17T11:24:00;13.80;1.00
44069;DHT22;29738;51.234;5.484;2024-03-17T11:26:31;13.80;1.00
44069;DHT22;29738;51.234;5.484;2024-03-17T11:28:57;13.70;1.00
44069;DHT22;29738;51.234;5.484;2024-03-17T11:31:44;13.70;1.00
44069;DHT22;29738;51.234;5.484;2024-03-17T11:34:32;13.70;1.00
44069;DHT22;29738;51.234;5.484;2024-03-17T11:37:00;13.80;1.00
44069;DHT22;29738;51.234;5.484;2024-03-17T11:39:51;13.80;1.00
44069;DHT22;29738;51.234;5.484;2024-03-17T11:42:25;13.70;1.00
44069;DHT22;29738;51.234;5.484;2024-03-17T11:45:03;13.80;1.00
44069;DHT22;29738;51.234;5.484;2024-03-17T11:47:38;13.70;1.00
44069;DHT22;29738;51.234;5.484;2024-03-17T11:50:09;13.70;1.00
44069;DHT22;29738;51.234;5.484;2024-03-17T11:52:36;13.70;1.00
44069;DHT22;29738;51.234;5.484;2024-03-17T11:55:02;13.80;1.00
44069;DHT22;29738;51.234;5.484;2024-03-17T11:57:29;13.80;1.00
44069;DHT22;29738;51.234;5.484;2024-03-17T11:59:56;13.70;1.00
44069;DHT22;29738;51.234;5.484;2024-03-17T12:02:29;13.70;1.00
44069;DHT22;29738;51.234;5.484;2024-03-17T12:05:01;13.70;1.00
44069;DHT22;29738;51.234;5.484;2024-03-17T12:07:27;13.70;1.00
44069;DHT22;29738;51.234;5.484;2024-03-17T12:09:55;13.80;1.00
44069;DHT22;29738;51.234;5.484;2024-03-17T12:12:24;13.90;1.00
44069;DHT22;29738;51.234;5.484;2024-03-17T12:14:51;13.90;1.00
44069;DHT22;29738;51.234;5.484;2024-03-17T12:17:22;14.00;1.00
44069;DHT22;29738;51.234;5.484;2024-03-17T12:19:48;14.20;1.00
44069;DHT22;29738;51.234;5.484;2024-03-17T12:22:18;14.40;1.00
44069;DHT22;29738;51.234;5.484;2024-03-17T12:24:49;14.40;1.00
44069;DHT22;29738;51.234;5.484;2024-03-17T12:27:20;14.20;1.00
44069;DHT22;29738;51.234;5.484;2024-03-17T12:29:48;14.20;1.00
44069;DHT22;29738;51.234;5.484;2024-03-17T12:32:24;14.20;1.00
44069;DHT22;29738;51.234;5.484;2024-03-17T12:34:57;14.20;1.00
44069;DHT22;29738;51.234;5.484;2024-03-17T12:37:29;13.90;1.00
44069;DHT22;29738;51.234;5.484;2024-03-17T12:40:00;13.90;1.00
44069;DHT22;29738;51.234;5.484;2024-03-17T12:42:27;13.80;1.00
44069;DHT22;29738;51.234;5.484;2024-03-17T12:44:59;13.90;1.00
44069;DHT22;29738;51.234;5.484;2024-03-17T12:47:26;13.90;1.00
44069;DHT22;29738;51.234;5.484;2024-03-17T12:52:39;14.30;1.00
44069;DHT22;29738;51.234;5.484;2024-03-17T12:55:06;14.70;1.00
44069;DHT22;29738;51.234;5.484;2024-03-17T13:00:57;14.80;1.00
44069;DHT22;29738;51.234;5.484;2024-03-17T13:03:25;14.80;1.00
44069;DHT22;29738;51.234;5.484;2024-03-17T13:05:51;14.70;1.00
44069;DHT22;29738;51.234;5.484;2024-03-17T13:08:17;14.60;1.00
44069;DHT22;29738;51.234;5.484;2024-03-17T13:10:43;14.70;1.00
44069;DHT22;29738;51.234;5.484;2024-03-17T13:13:10;14.90;1.00
44069;DHT22;29738;51.234;5.484;2024-03-17T13:15:38;15.00;1.00
44069;DHT22;29738;51.234;5.484;2024-03-17T13:18:04;15.00;1.00
44069;DHT22;29738;51.234;5.484;2024-03-17T13:20:31;15.20;1.00
44069;DHT22;29738;51.234;5.484;2024-03-17T13:22:58;15.50;1.00
44069;DHT22;29738;51.234;5.484;2024-03-17T13:25:26;15.80;1.00
44069;DHT22;29738;51.234;5.484;2024-03-17T13:27:55;15.70;1.00
44069;DHT22;29738;51.234;5.484;2024-03-17T13:30:23;15.60;1.00
44069;DHT22;29738;51.234;5.484;2024-03-17T13:32:52;15.70;1.00
44069;DHT22;29738;51.234;5.484;2024-03-17T13:35:27;15.50;1.00
44069;DHT22;29738;51.234;5.484;2024-03-17T13:37:53;15.60;1.00
44069;DHT22;29738;51.234;5.484;2024-03-17T13:40:27;15.80;1.00
44069;DHT22;29738;51.234;5.484;2024-03-17T13:42:56;16.10;1.00
44069;DHT22;29738;51.234;5.484;2024-03-17T13:45:24;16.20;1.00
44069;DHT22;29738;51.234;5.484;2024-03-17T13:47:53;16.50;1.00
44069;DHT22;29738;51.234;5.484;2024-03-17T13:50:20;16.60;1.00
44069;DHT22;29738;51.234;5.484;2024-03-17T13:52:46;16.40;1.00
44069;DHT22;29738;51.234;5.484;2024-03-17T13:57:44;15.60;1.00
44069;DHT22;29738;51.234;5.484;2024-03-17T14:00:14;15.50;1.00
44069;DHT22;29738;51.234;5.484;2024-03-17T14:02:43;15.60;1.00
44069;DHT22;29738;51.234;5.484;2024-03-17T14:05:14;15.40;1.00
44069;DHT22;29738;51.234;5.484;2024-03-17T14:07:41;15.30;1.00
44069;DHT22;29738;51.234;5.484;2024-03-17T14:10:08;15.20;1.00
44069;DHT22;29738;51.234;5.484;2024-03-17T14:12:35;15.20;1.00
44069;DHT22;29738;51.234;5.484;2024-03-17T14:15:03;15.00;1.00
44069;DHT22;29738;51.234;5.484;2024-03-17T14:17:31;15.00;1.00
44069;DHT22;29738;51.234;5.484;2024-03-17T14:19:56;15.10;1.00
44069;DHT22;29738;51.234;5.484;2024-03-17T14:22:22;15.20;1.00
44069;DHT22;29738;51.234;5.484;2024-03-17T14:24:48;15.30;1.00
44069;DHT22;29738;51.234;5.484;2024-03-17T14:27:15;15.40;1.00
44069;DHT22;29738;51.234;5.484;2024-03-17T14:29:42;15.30;1.00
44069;DHT22;29738;51.234;5.484;2024-03-17T14:32:09;15.50;1.00
44069;DHT22;29738;51.234;5.484;2024-03-17T14:34:35;15.70;1.00
44069;DHT22;29738;51.234;5.484;2024-03-17T14:37:03;15.80;1.00
44069;DHT22;29738;51.234;5.484;2024-03-17T14:39:29;16.00;1.00
44069;DHT22;29738;51.234;5.484;2024-03-17T14:41:56;15.80;1.00
44069;DHT22;29738;51.234;5.484;2024-03-17T14:44:23;16.00;1.00
44069;DHT22;29738;51.234;5.484;2024-03-17T14:46:49;15.90;1.00
44069;DHT22;29738;51.234;5.484;2024-03-17T14:49:18;15.70;1.00
44069;DHT22;29738;51.234;5.484;2024-03-17T14:51:44;15.60;1.00
44069;DHT22;29738;51.234;5.484;2024-03-17T14:54:10;15.70;1.00
44069;DHT22;29738;51.234;5.484;2024-03-17T14:56:37;15.80;1.00
44069;DHT22;29738;51.234;5.484;2024-03-17T14:59:03;16.00;1.00
44069;DHT22;29738;51.234;5.484;2024-03-17T15:01:29;16.20;1.00
44069;DHT22;29738;51.234;5.484;2024-03-17T15:03:56;16.40;1.00
44069;DHT22;29738;51.234;5.484;2024-03-17T15:06:22;16.10;1.00
44069;DHT22;29738;51.234;5.484;2024-03-17T15:08:48;15.90;1.00
44069;DHT22;29738;51.234;5.484;2024-03-17T15:11:14;16.00;1.00
44069;DHT22;29738;51.234;5.484;2024-03-17T15:13:39;15.80;1.00
44069;DHT22;29738;51.234;5.484;2024-03-17T15:16:08;15.80;1.00
44069;DHT22;29738;51.234;5.484;2024-03-17T15:18:33;15.90;1.00
44069;DHT22;29738;51.234;5.484;2024-03-17T15:21:01;15.90;1.00
44069;DHT22;29738;51.234;5.484;2024-03-17T15:23:30;15.90;1.00
44069;DHT22;29738;51.234;5.484;2024-03-17T15:26:05;15.60;1.00
44069;DHT22;29738;51.234;5.484;2024-03-17T15:28:39;15.50;1.00
44069;DHT22;29738;51.234;5.484;2024-03-17T15:31:06;15.40;1.00
44069;DHT22;29738;51.234;5.484;2024-03-17T15:33:36;15.40;1.00
44069;DHT22;29738;51.234;5.484;2024-03-17T15:36:04;15.40;1.00
44069;DHT22;29738;51.234;5.484;2024-03-17T15:38:33;15.30;1.00
44069;DHT22;29738;51.234;5.484;2024-03-17T15:41:05;15.20;1.00
44069;DHT22;29738;51.234;5.484;2024-03-17T15:43:34;15.30;1.00
44069;DHT22;29738;51.234;5.484;2024-03-17T15:46:01;15.30;1.00
44069;DHT22;29738;51.234;5.484;2024-03-17T15:48:27;15.20;1.00
44069;DHT22;29738;51.234;5.484;2024-03-17T15:50:57;15.10;1.00
44069;DHT22;29738;51.234;5.484;2024-03-17T15:53:23;15.00;1.00
44069;DHT22;29738;51.234;5.484;2024-03-17T15:56:00;15.00;1.00
44069;DHT22;29738;51.234;5.484;2024-03-17T15:58:29;14.90;1.00
44069;DHT22;29738;51.234;5.484;2024-03-17T16:00:57;14.80;1.00
44069;DHT22;29738;51.234;5.484;2024-03-17T16:03:28;14.80;1.00